Terminal Aerodrome Forecast
Issued by NWS

Home | Current Version | Previous Version | Text Only | Print | Product List | Glossary Off
Versions: 1 2 3 4 5 6 7 8 9 10 11 12 13 14

000
FTUS43 KTOP 221700
TAFFOE
TAF
KFOE 221728Z 2218/2318 03009KT P6SM FEW120
     FM230100 09004KT P6SM SCT080
     FM231500 12011KT P6SM SCT060=

USA.gov is the U.S. government's official web portal to all federal, state and local government web resources and services.